0,00 -
Pkt Einheit
Index Typ
0,00% %
0,00 abs
ISIN: US78378X1072 WKN: A0AET0 Börse: Commerzbank CFD Datum: -

S&P 500 Index

Name Kurs +/- abs. +/- % Zeit 1 Woche % 1 Monat % 3 Monate % 6 Monate % 1 Jahr % 10 Jahre %
3M Co. 166,690 -2,160 -1,28 14.06.19 0,05 -4,27 -19,89 -15,00 -18,68 181,05
Abbott Laboratories 82,220 -0,070 -0,09 14.06.19 1,83 7,46 2,96 16,20 30,69 293,69
AbbVie Inc. 78,690 -0,260 -0,33 14.06.19 1,63 -0,11 -3,26 -8,08 -20,97
Abiomed Inc. 250,960 -4,570 -1,79 14.06.19 -6,31 -3,36 -24,70 -20,63 -43,42 3.159,22
Accenture PLC 184,970 0,020 0,01 14.06.19 1,12 5,46 11,17 18,93 13,15 483,13
Activision Blizzard Inc. 45,620 -0,430 -0,93 14.06.19 0,53 -1,43 2,22 -4,46 -41,07 268,20
Adobe Inc. 274,280 -2,020 -0,73 14.06.19 -1,39 -0,92 6,31 19,25 8,92 851,70
Advance Auto Parts Inc. 151,800 1,190 0,79 14.06.19 -2,29 -2,59 -1,96 -7,31 10,67 265,87
Advanced Micro Devices Inc. 30,360 -1,030 -3,28 14.06.19 -6,33 10,08 30,30 52,56 85,80 612,68
AES Corp., The 17,090 0,230 1,36 14.06.19 2,34 5,36 -6,66 7,15 30,76 69,54
Affiliated Managers Group Inc. 88,360 -1,400 -1,56 14.06.19 -1,03 -3,12 -19,20 -7,49 -43,29 49,16
AFLAC Inc. 55,040 0,570 1,05 14.06.19 0,90 7,27 10,19 23,38 20,31 248,13
Agilent Technologies Inc. 69,970 -0,330 -0,47 14.06.19 0,65 3,44 -13,72 0,88 5,81 414,53
Air Products & Chemicals Inc. 219,250 -0,930 -0,42 14.06.19 -1,71 6,94 18,61 41,08 33,54 233,41
Akamai Technologies Inc. 78,620 -0,570 -0,72 14.06.19 -1,01 2,58 8,49 20,77 -4,09 255,43
Alaska Air Group Inc. 63,120 0,960 1,54 14.06.19 4,28 2,65 13,20 1,32 0,13
Albemarle Corp. 70,880 -1,880 -2,58 14.06.19 2,61 1,87 -17,02 -16,58 -24,05 163,30
Alexandria Real Est. Equ. Inc. 151,300 -1,460 -0,96 14.06.19 0,40 3,96 7,67 23,51 18,35
Alexion Pharmaceuticals Inc. 117,930 0,620 0,53 14.06.19 -0,37 -8,16 -13,34 7,77 -2,95 523,14
Align Technology Inc. 305,870 -5,200 -1,67 14.06.19 -0,55 -6,09 21,22 41,89 -15,66 2.826,99
Allegion PLC 106,020 0,710 0,67 14.06.19 1,81 5,57 19,92 22,78 29,18
Allergan PLC 115,920 -5,080 -4,20 14.06.19 -8,82 -15,21 -23,36 -21,80 -33,06 159,50
Alliance Data Systems Corp. 139,800 -0,580 -0,41 14.06.19 -2,11 -3,90 -18,91 -19,27 -39,83 208,47
Alliant Energy Corp. 50,000 0,770 1,56 14.06.19 2,04 5,69 5,49
Allstate Corp., The 102,140 1,040 1,03 14.06.19 1,41 6,96 7,70 28,80 8,88 319,47
Alphabet Inc. (Class A) 1.086,300 -4,710 -0,43 14.06.19 1,68 -7,22 -8,74 3,29 -6,29 421,28
Alphabet Inc. (Class C) 1.085,350 -3,420 -0,31 14.06.19 1,81 -6,77 -8,37 4,15 -5,81
Altria Group Inc. 50,860 -0,350 -0,68 14.06.19 -1,01 -2,44 -10,38 -3,55 -11,99 207,31
Amazon.com Inc. 1.870,170 -0,130 -0,01 14.06.19 3,67 -0,05 9,18 17,48 8,99 2.150,24
AMCOR PLC 10,930 -0,070 -0,64 14.06.19
Ameren Corp. 76,710 0,500 0,66 14.06.19 1,09 4,06 5,02 9,88 34,67 218,43
American Airlines Group Inc. 32,680 -0,410 -1,24 14.06.19 5,69 1,63 3,98 0,83 -23,59 268,85
American Electric Power Co.Inc 90,600 1,010 1,13 14.06.19 1,18 6,53 8,10 13,24 39,28 231,14
American Express Co. 122,000 0,140 0,11 14.06.19 0,73 3,69 7,47 15,42 23,83 383,55
American International Grp Inc 53,310 0,110 0,21 14.06.19 0,76 2,82 21,05 42,20 -3,44 74,22
American Tower Corp. 211,230 2,220 1,06 14.06.19 -0,58 5,37 11,79 26,79 52,42 606,93
American Water Works Co. Inc. 118,270 1,590 1,36 14.06.19 1,70 7,26 11,78 21,75 45,92 539,99
Ameriprise Financial Inc. 153,530 1,990 1,31 14.06.19 2,44 7,93 18,97 39,33 4,21 519,57
AmerisourceBergen Corp. 85,050 -1,390 -1,61 14.06.19 1,88 9,23 6,07 7,70 -10,33 374,87
AMETEK Inc. 84,990 -0,690 -0,81 14.06.19 -0,91 -0,91 5,17 20,74 13,18 457,95
Amgen Inc. 176,080 -0,630 -0,36 14.06.19 0,32 3,66 -7,93 -8,33 -4,83 256,15
Amphenol Corp. 94,300 -2,590 -2,67 14.06.19 1,19 1,13 -1,17 13,29 3,26 471,52
Anadarko Petroleum Corp. 69,830 -0,240 -0,34 14.06.19 -0,31 -4,17 56,75 37,06 1,96 41,50
Analog Devices Inc. 104,020 -1,760 -1,66 14.06.19 3,31 -3,59 -4,90 19,19 2,48 316,08
Ansys Inc. 197,130 -1,340 -0,68 14.06.19 1,99 5,45 9,25 31,67 10,88 520,49
Anthem Inc. 285,320 0,220 0,08 14.06.19 2,59 10,31 -5,83 3,53 16,38 523,92
AON PLC 190,760 1,080 0,57 14.06.19 0,27 6,64 12,21 24,01 36,72 423,78
Apache Corp. 27,490 -0,870 -3,07 14.06.19 -5,04 -11,81 -20,20 -9,09 -33,93 -66,48
Apartment Inv. & Managem. Co. 51,130 -0,250 -0,49 14.06.19 -0,23 2,12 0,69 8,40 23,92 422,80
Apple Inc. 192,740 -1,410 -0,73 14.06.19 1,36 0,95 3,56 16,47 2,07 891,09
Applied Materials Inc. 41,230 -0,420 -1,01 14.06.19 -0,65 -0,67 2,08 26,28 -16,39 271,44
Aptiv PLC 75,330 -0,760 -1,00 14.06.19 2,63 0,39 -8,09 14,22 -26,67
Archer Daniels Midland Co. 40,790 -0,220 -0,54 14.06.19 3,06 -0,46 -5,53 -8,56 -11,38 46,20
Arconic Inc. 22,980 -0,210 -0,91 14.06.19 -2,38 4,41 21,01 16,41 31,09
Arista Networks Inc. 236,080 -5,930 -2,45 14.06.19 -4,20 -5,07 -20,45 7,11 -17,63
Assurant Inc. 106,120 1,070 1,02 14.06.19 1,71 10,95 7,49 17,57 11,13 344,57
AT & T Inc. 32,350 0,060 0,19 14.06.19 -0,43 3,52 5,48 7,05 -2,41 31,34
Atmos Energy Corp. 104,990 0,450 0,43 14.06.19 0,75 4,22 3,43 6,62 20,97
Autodesk Inc. 158,160 -4,160 -2,56 14.06.19 -4,32 -8,72 3,18 20,27 14,62 642,19
Automatic Data Processing Inc. 165,510 1,060 0,64 14.06.19 -0,84 3,84 6,57 22,76 18,59 437,71
AutoZone Inc. 1.119,870 5,920 0,53 14.06.19 1,89 14,46 16,38 28,54 61,51 622,92
Avalonbay Communities Inc. 208,090 1,000 0,48 14.06.19 -0,46 3,68 4,58 11,34 23,33 259,40
Avery Dennison Corp. 110,390 -0,660 -0,59 14.06.19 -1,57 7,14 0,16 21,04 4,20 308,55
Baker Hughes a GE Co. 22,150 -0,630 -2,77 14.06.19 -5,02 -2,59 -20,47 3,26 -31,99
Ball Corp. 65,410 0,490 0,75 14.06.19 -0,74 4,64 13,76 36,24 78,47 521,33
Bank of America Corp. 28,040 0,100 0,36 14.06.19 1,85 -0,88 -4,30 14,54 -4,23 110,35
Baxter International Inc. 77,930 -0,280 -0,36 14.06.19 0,45 2,62 1,29 18,61 3,60 198,73
BB&T Corp. 50,060 0,330 0,66 14.06.19 2,52 5,19 0,16 9,64 -4,32 121,50
Becton, Dickinson & Co. 234,160 -2,880 -1,21 14.06.19 -1,77 3,88 -7,78 1,17 0,86 248,82
Berkshire Hathaway Inc. 205,160 0,170 0,08 14.06.19 -0,32 1,07 0,42 2,58 6,99 250,22
Best Buy Co. Inc. 66,030 0,190 0,29 14.06.19 3,63 -2,70 -5,17 19,25 -11,74 70,80
Biogen Inc. 227,670 -3,590 -1,55 14.06.19 0,19 -1,28 -30,98 -27,62 -25,36 354,16
Bk of New York MellonCorp.,The 44,490 -0,040 -0,09 14.06.19 0,20 -4,34 -16,25 -8,59 -21,85 56,32
Blackrock Inc. 446,970 -1,310 -0,29 14.06.19 0,64 0,59 3,10 16,92 -14,78 163,48
Block H. & R. Inc. 28,690 0,260 0,91 14.06.19 5,44 4,71 17,82 6,34 21,26 89,00
Boeing Co. 347,160 -1,700 -0,49 14.06.19 -1,85 0,44 -8,40 8,91 -3,00 601,05
Booking Holdings Inc. 1.775,500 -34,020 -1,88 14.06.19 -0,16 -0,80 1,38 -1,75 -17,09 1.498,83
BorgWarner Inc. 40,950 -0,160 -0,39 14.06.19 2,97 10,71 8,30 18,25 -15,09 149,54
Boston Properties Inc. 135,200 0,000 0,00 14.06.19 -0,71 0,98 1,85 7,52 12,59 178,53
Boston Scientific Corp. 40,420 -0,240 -0,59 14.06.19 -2,08 9,04 0,52 12,91 22,63 349,11
Bristol-Myers Squibb Co. 47,560 0,230 0,49 14.06.19 1,73 1,99 -4,80 -8,75 -13,21 144,90
Broadcom Inc. 265,930 -15,680 -5,57 14.06.19 -3,25 -12,63 -8,39 4,36 -1,59 920,84
Broadridge Financial Solutions 130,150 -1,000 -0,76 14.06.19 -0,66 7,87 25,69 34,69 13,79
Brown-Forman Corp. Class B 56,260 -1,030 -1,80 14.06.19 -0,42 9,12 10,97 19,55 5,38 280,89
C.H. Robinson Worldwide Inc. 83,700 0,130 0,16 14.06.19 5,03 2,25 -5,96 -1,12 -7,09 63,76
Cabot Oil & Gas Corp. 23,770 -0,130 -0,54 14.06.19 -6,56 -9,83 -8,33 1,97 1,15 174,32
Cadence Design Systems Inc. 67,720 -0,380 -0,56 14.06.19 3,28 -1,48 11,03 56,69 50,42 1.023,05
Campbell Soup Co. 42,260 -0,380 -0,89 14.06.19 -1,90 8,41 17,36 7,92 13,91 47,66
Capital One Financial Corp. 90,570 -0,200 -0,22 14.06.19 0,34 1,33 7,40 15,04 -6,88 287,05
Capri Holdings Ltd. 33,510 -0,160 -0,48 14.06.19 -2,05 -16,62 -27,04 -11,68 -50,37
Cardinal Health Inc. 44,160 -1,110 -2,45 14.06.19 0,71 -4,37 -12,15 -11,79 -19,34 46,86
Carmax Inc. 83,540 1,390 1,69 14.06.19 4,57 10,07 36,82 36,48 15,40 539,66
Carnival Corp. 53,120 0,270 0,51 14.06.19 1,70 -1,25 -6,16 -5,70 -18,50 129,36
Caterpillar Inc. 127,230 0,060 0,05 14.06.19 2,23 -0,05 -4,10 0,36 -15,19 252,24
Cboe Global Markets Inc. 107,740 0,480 0,45 14.06.19 -3,21 3,72 11,00
CBRE Group Inc. 49,560 -0,170 -0,34 14.06.19 0,61 3,79 -2,13 20,76 1,89 451,89
CBS Corp. Class B 48,990 -0,340 -0,69 14.06.19 1,18 2,40 2,70 1,96 -12,69 527,27
Celanese Corp. (Del.) 104,190 -1,070 -1,02 14.06.19 3,04 2,95 2,92 20,19 -10,92
Celgene Corp. 96,510 0,080 0,08 14.06.19 0,49 1,63 9,10 41,51 23,60 357,07
Centene Corp. 53,550 -0,190 -0,35 14.06.19 -1,22 -1,62 -9,47 -16,02 -13,47
Zum Index